Time;durP1;ratioP1;P1;durP2;ratioP2;P2;SDS_P1;SDS_P2;PMS_P1;PMS_P2;Temp;Humidity;BMP_temperature;BMP_pressure;BME280_temperature;BME280_humidity;BME280_pressure;Samples;Min_cycle;Max_cycle;Signal;HPM_P1;HPM_P2
2023/11/17 00:06:38;;;;;;;6.10;1.95;;;;;;;17.82;100.00;101526.47;20917394;28;20072;-72
2023/11/17 00:17:02;;;;;;;6.43;1.85;;;;;;;17.64;100.00;101510.47;20928992;28;20045;-73
2023/11/17 00:27:24;;;;;;;4.50;1.77;;;;;;;17.63;100.00;101503.34;20937967;28;20059;-73
2023/11/17 00:37:51;;;;;;;8.43;2.05;;;;;;;17.58;100.00;101494.44;20937060;28;20053;-73
2023/11/17 00:48:13;;;;;;;11.07;2.17;;;;;;;17.26;100.00;101485.56;20942431;28;20097;-74
2023/11/17 00:58:38;;;;;;;8.73;2.22;;;;;;;17.14;100.00;101500.66;20917371;28;20052;-73
2023/11/17 01:09:00;;;;;;;6.43;1.98;;;;;;;17.12;100.00;101499.78;20911597;28;20390;-73
2023/11/17 01:19:26;;;;;;;7.03;2.53;;;;;;;17.00;100.00;101491.75;20932193;28;20048;-74
2023/11/17 01:29:49;;;;;;;8.38;1.85;;;;;;;17.00;100.00;101497.09;20944340;28;20095;-73
2023/11/17 01:40:15;;;;;;;6.85;2.60;;;;;;;16.95;100.00;101485.53;20930620;28;20368;-73
2023/11/17 01:50:38;;;;;;;5.68;2.10;;;;;;;16.93;100.00;101491.78;20935201;28;20068;-73
2023/11/17 02:01:03;;;;;;;9.10;2.00;;;;;;;16.87;100.00;101475.75;20925974;28;20055;-72
2023/11/17 02:11:31;;;;;;;4.85;2.08;;;;;;;16.83;100.00;101480.19;20911965;28;20359;-73
2023/11/17 02:21:57;;;;;;;9.35;2.30;;;;;;;16.80;100.00;101471.31;20916924;28;20044;-73
2023/11/17 02:32:24;;;;;;;10.95;2.15;;;;;;;16.64;100.00;101457.94;20913258;28;20168;-73
2023/11/17 02:42:48;;;;;;;3.67;1.60;;;;;;;16.61;100.00;101457.91;20934903;28;20048;-73
2023/11/17 02:53:18;;;;;;;5.55;1.80;;;;;;;16.54;100.00;101447.22;20918906;28;20048;-73
2023/11/17 03:03:40;;;;;;;6.18;1.80;;;;;;;16.41;100.00;101446.28;20910735;28;20479;-73
2023/11/17 03:14:05;;;;;;;4.57;1.88;;;;;;;16.51;100.00;101453.44;20919320;28;20712;-73
2023/11/17 03:24:28;;;;;;;7.00;2.10;;;;;;;16.46;100.00;101444.53;20921655;28;20052;-73
2023/11/17 03:34:52;;;;;;;4.93;2.38;;;;;;;16.34;100.00;101455.16;20894078;28;20068;-73
2023/11/17 03:45:15;;;;;;;5.60;1.98;;;;;;;16.29;100.00;101464.91;20916168;28;20143;-72
2023/11/17 03:55:39;;;;;;;4.05;1.92;;;;;;;16.09;100.00;101464.81;20914869;28;20073;-74
2023/11/17 04:06:03;;;;;;;3.78;1.88;;;;;;;16.07;100.00;101465.72;20942845;28;20052;-72
2023/11/17 04:16:28;;;;;;;4.60;1.73;;;;;;;16.08;100.00;101473.69;20855560;28;20059;-73
2023/11/17 04:26:51;;;;;;;8.93;2.45;;;;;;;16.04;100.00;101482.56;20935964;28;20049;-73
2023/11/17 04:37:16;;;;;;;5.85;2.00;;;;;;;15.91;100.00;101476.28;20920532;28;20080;-73
2023/11/17 04:47:38;;;;;;;6.40;1.83;;;;;;;15.97;100.00;101477.19;20924233;28;20045;-73
2023/11/17 04:58:03;;;;;;;5.22;2.17;;;;;;;16.09;100.00;101486.13;20912322;28;20053;-73
2023/11/17 05:08:28;;;;;;;6.60;2.40;;;;;;;16.04;100.00;101485.22;20944975;28;20059;-73
2023/11/17 05:18:52;;;;;;;7.85;2.40;;;;;;;16.02;100.00;101491.41;20930133;28;20064;-74
2023/11/17 05:29:15;;;;;;;6.88;2.03;;;;;;;16.05;100.00;101494.09;20908755;28;20056;-74
2023/11/17 05:39:40;;;;;;;6.45;2.10;;;;;;;16.17;100.00;101495.06;20942115;28;20037;-73
2023/11/17 05:50:03;;;;;;;4.22;1.67;;;;;;;16.64;100.00;101502.38;20951730;28;20060;-72
2023/11/17 06:00:27;;;;;;;7.88;1.90;;;;;;;17.43;100.00;101513.13;20863862;28;20053;-73
2023/11/17 06:10:50;;;;;;;9.65;1.73;;;;;;;18.16;100.00;101518.38;20918345;28;20052;-74
2023/11/17 06:21:15;;;;;;;5.63;1.40;;;;;;;18.71;100.00;101509.22;20892017;28;20045;-73
2023/11/17 06:31:38;;;;;;;5.65;1.73;;;;;;;19.41;100.00;101516.75;20910690;28;20056;-74
2023/11/17 06:42:03;;;;;;;4.88;1.17;;;;;;;20.09;100.00;101495.53;20961099;28;20106;-74
2023/11/17 06:52:26;;;;;;;7.50;1.30;;;;;;;20.82;100.00;101508.00;20942986;28;20055;-75
2023/11/17 07:02:50;;;;;;;3.30;1.00;;;;;;;21.51;100.00;101511.44;20900847;28;20091;-75
2023/11/17 07:13:13;;;;;;;4.38;0.77;;;;;;;22.30;100.00;101512.63;20883188;28;20380;-74
2023/11/17 07:23:37;;;;;;;9.40;1.60;;;;;;;22.89;100.00;101497.91;20840432;28;20357;-74
2023/11/17 07:34:00;;;;;;;4.68;2.03;;;;;;;23.27;100.00;101483.47;20915272;28;20048;-74
2023/11/17 07:44:24;;;;;;;3.53;0.80;;;;;;;23.83;100.00;101482.00;20927318;28;20186;-75
2023/11/17 07:54:46;;;;;;;4.30;1.30;;;;;;;24.40;100.00;101465.13;20965936;28;20052;-74
2023/11/17 08:05:12;;;;;;;6.88;1.58;;;;;;;24.96;96.70;101455.25;20953709;28;20051;-74
2023/11/17 08:15:35;;;;;;;4.93;1.80;;;;;;;25.08;95.67;101450.34;20892813;28;20574;-75
2023/11/17 08:26:00;;;;;;;3.92;1.80;;;;;;;25.54;92.06;101446.97;20874551;28;20079;-75
2023/11/17 08:36:24;;;;;;;4.47;1.38;;;;;;;25.69;84.04;101459.97;20904666;28;20040;-74
2023/11/17 08:46:49;;;;;;;5.53;1.55;;;;;;;25.31;77.50;101445.06;20902670;28;20387;-74
2023/11/17 08:57:12;;;;;;;5.50;1.63;;;;;;;25.39;81.60;101416.84;20857852;28;20083;-74
2023/11/17 09:07:38;;;;;;;3.78;0.95;;;;;;;25.62;78.60;101407.03;20881441;28;20049;-74
2023/11/17 09:18:01;;;;;;;2.57;0.80;;;;;;;25.83;74.66;101397.25;20803112;28;20060;-75
2023/11/17 09:28:25;;;;;;;4.38;0.95;;;;;;;25.96;68.95;101382.31;20922029;28;20285;-75
2023/11/17 09:38:48;;;;;;;5.13;1.08;;;;;;;26.18;65.44;101367.91;20906143;28;20103;-74
2023/11/17 09:49:15;;;;;;;3.55;0.82;;;;;;;26.11;58.96;101349.25;20838783;28;20136;-74
2023/11/17 09:59:38;;;;;;;3.15;0.90;;;;;;;25.91;61.42;101336.50;20917382;28;20055;-75
2023/11/17 10:10:05;;;;;;;6.45;1.40;;;;;;;25.48;65.09;101336.31;20895408;28;20083;-75
2023/11/17 10:20:28;;;;;;;3.72;1.27;;;;;;;24.61;68.82;101310.50;20874802;28;20442;-75
2023/11/17 10:30:54;;;;;;;4.32;1.55;;;;;;;24.10;75.38;101309.47;20902257;28;20037;-75
2023/11/17 10:41:20;;;;;;;5.15;1.40;;;;;;;24.33;81.29;101304.28;20933126;28;20486;-76
2023/11/17 10:51:49;;;;;;;4.72;1.55;;;;;;;24.34;83.54;101267.38;20892075;28;20050;-75
2023/11/17 11:02:12;;;;;;;1.85;1.10;;;;;;;24.73;84.61;101244.41;20947605;28;20136;-75
2023/11/17 11:12:38;;;;;;;5.65;1.40;;;;;;;25.41;76.83;101241.03;20844916;28;20060;-75
2023/11/17 11:23:02;;;;;;;3.60;1.05;;;;;;;24.84;75.37;101253.00;20927272;28;20107;-74
2023/11/17 11:33:29;;;;;;;4.55;1.63;;;;;;;24.47;75.76;101226.41;20916180;28;20398;-74
2023/11/17 11:43:54;;;;;;;6.63;1.50;;;;;;;24.19;79.89;101210.28;20909898;28;20056;-74
2023/11/17 11:54:22;;;;;;;5.00;1.52;;;;;;;23.98;85.03;101188.47;20949425;28;20056;-75
2023/11/17 12:04:53;;;;;;;4.65;1.60;;;;;;;24.02;87.47;101190.16;20898229;28;20064;-75
2023/11/17 12:15:19;;;;;;;4.53;1.75;;;;;;;24.03;88.76;101175.69;20899701;28;20051;-74
2023/11/17 12:25:43;;;;;;;6.05;1.50;;;;;;;24.13;100.00;101166.38;20942287;28;20049;-75
2023/11/17 12:36:10;;;;;;;5.43;1.40;;;;;;;24.09;100.00;101160.19;20925657;28;20060;-74
2023/11/17 12:46:35;;;;;;;8.27;2.38;;;;;;;24.09;100.00;101151.25;20906434;28;20599;-75
2023/11/17 12:56:59;;;;;;;8.88;4.07;;;;;;;23.95;100.00;101140.03;20904929;28;20140;-74
2023/11/17 13:07:21;;;;;;;6.50;2.15;;;;;;;23.97;100.00;101143.53;20854586;28;20045;-73
2023/11/17 13:17:46;;;;;;;7.55;2.42;;;;;;;23.71;100.00;101103.97;20846020;28;20064;-72
2023/11/17 13:28:12;;;;;;;7.10;2.33;;;;;;;23.59;100.00;101118.72;20844272;28;20044;-73
2023/11/17 13:38:53;;;;;;;5.15;1.88;;;;;;;23.70;100.00;101081.50;20859756;28;20052;-73
2023/11/17 13:49:16;;;;;;;6.55;2.90;;;;;;;23.39;100.00;101091.50;20918321;28;20876;-74
2023/11/17 13:59:43;;;;;;;8.35;3.13;;;;;;;23.12;100.00;101084.28;20916844;28;20049;-74
2023/11/17 14:10:07;;;;;;;9.02;3.55;;;;;;;22.87;100.00;101057.22;20899485;28;20477;-74
2023/11/17 14:20:34;;;;;;;4.68;1.83;;;;;;;22.66;100.00;101066.78;20911054;28;20056;-73
2023/11/17 14:30:57;;;;;;;8.33;1.73;;;;;;;22.48;100.00;101064.63;20917969;28;20048;-74
2023/11/17 14:41:22;;;;;;;6.80;2.30;;;;;;;22.36;100.00;101062.28;20914274;28;20044;-74
2023/11/17 14:51:45;;;;;;;6.65;2.20;;;;;;;22.18;100.00;101067.25;20899806;28;20048;-73
2023/11/17 15:02:09;;;;;;;9.50;2.38;;;;;;;22.04;100.00;101058.69;20915771;28;20068;-73
2023/11/17 15:12:32;;;;;;;7.40;1.95;;;;;;;21.84;100.00;101058.28;20907964;28;20049;-73
2023/11/17 15:22:55;;;;;;;7.38;1.90;;;;;;;21.67;100.00;101066.75;20900193;28;20057;-73
2023/11/17 15:33:18;;;;;;;7.57;1.80;;;;;;;21.50;100.00;101054.69;20871803;28;20055;-73
2023/11/17 15:43:43;;;;;;;4.75;1.40;;;;;;;21.35;100.00;101064.88;20887331;28;20048;-73
2023/11/17 15:54:05;;;;;;;9.65;1.90;;;;;;;21.23;100.00;101072.34;20900604;28;20458;-73
2023/11/17 16:04:30;;;;;;;6.07;2.20;;;;;;;21.08;100.00;101079.78;20886831;28;20128;-73
2023/11/17 16:14:53;;;;;;;4.40;1.50;;;;;;;21.05;100.00;101100.47;20901235;28;20429;-72
2023/11/17 16:25:17;;;;;;;7.38;2.65;;;;;;;21.17;100.00;101096.66;20926124;28;20040;-73
2023/11/17 16:35:40;;;;;;;5.35;1.80;;;;;;;21.16;100.00;101125.31;20804948;28;20442;-73
2023/11/17 16:46:05;;;;;;;5.00;1.88;;;;;;;21.16;100.00;101133.34;20819645;28;21327;-73
2023/11/17 16:56:27;;;;;;;6.25;2.00;;;;;;;21.08;100.00;101128.13;20823834;28;20072;-72
2023/11/17 17:07:11;;;;;;;4.43;1.77;;;;;;;20.91;100.00;101137.44;20682402;28;20042;-73
2023/11/17 17:17:36;;;;;;;6.93;1.80;;;;;;;20.69;100.00;101148.63;20719397;28;20042;-73
2023/11/17 17:28:00;;;;;;;8.13;2.60;;;;;;;20.44;100.00;101158.06;20671925;28;20433;-74
2023/11/17 17:38:23;;;;;;;8.82;1.95;;;;;;;20.45;100.00;101154.47;20708267;28;20149;-73
2023/11/17 17:48:47;;;;;;;7.82;2.25;;;;;;;20.30;100.00;101162.75;20709179;28;20053;-72
2023/11/17 17:59:09;;;;;;;7.10;2.80;;;;;;;20.22;100.00;101156.63;20700031;28;20052;-73
2023/11/17 18:09:33;;;;;;;9.30;2.92;;;;;;;20.06;100.00;101160.50;20868172;28;20072;-74
2023/11/17 18:19:56;;;;;;;6.25;2.90;;;;;;;19.78;100.00;101150.22;20882731;28;20053;-72
2023/11/17 18:30:28;;;;;;;7.47;2.70;;;;;;;19.81;100.00;101150.19;20871948;28;20189;-74
2023/11/17 18:40:50;;;;;;;14.35;4.28;;;;;;;19.64;100.00;101154.91;20872349;28;20091;-74
2023/11/17 18:51:15;;;;;;;5.93;3.00;;;;;;;19.43;100.00;101137.34;20825586;28;20120;-73
2023/11/17 19:01:38;;;;;;;8.85;3.78;;;;;;;19.24;100.00;101129.59;20893410;28;20092;-74
2023/11/17 19:12:05;;;;;;;6.70;3.25;;;;;;;19.09;100.00;101125.34;20844804;28;20049;-74
2023/11/17 19:22:27;;;;;;;5.18;3.05;;;;;;;18.92;100.00;101127.34;20853634;28;20562;-74
2023/11/17 19:32:51;;;;;;;12.02;5.65;;;;;;;18.68;100.00;101131.22;20907071;28;20382;-73
2023/11/17 19:43:14;;;;;;;13.00;4.28;;;;;;;18.76;100.00;101140.03;20930309;28;20425;-73
2023/11/17 19:53:39;;;;;;;7.45;3.90;;;;;;;18.77;100.00;101147.16;20894163;28;20064;-74
2023/11/17 20:04:06;;;;;;;7.78;3.97;;;;;;;18.69;100.00;101136.56;20836435;28;20107;-74
2023/11/17 20:14:30;;;;;;;12.65;7.22;;;;;;;18.60;100.00;101127.75;20801459;28;20060;-73
2023/11/17 20:24:52;;;;;;;19.10;12.15;;;;;;;18.57;100.00;101131.34;20816130;28;20052;-74
2023/11/17 20:35:18;;;;;;;32.90;22.05;;;;;;;18.49;100.00;101134.97;20868395;28;20081;-74
2023/11/17 20:45:40;;;;;;;11.52;5.10;;;;;;;18.29;100.00;101119.13;20845138;28;20633;-74
2023/11/17 20:56:07;;;;;;;10.45;6.15;;;;;;;18.21;100.00;101105.84;20868231;28;20041;-74
2023/11/17 21:06:30;;;;;;;16.85;8.85;;;;;;;18.14;100.00;101114.81;20943450;28;20090;-75
2023/11/17 21:16:54;;;;;;;10.07;3.55;;;;;;;18.21;100.00;101088.94;20897361;28;20616;-74
2023/11/17 21:27:21;;;;;;;16.77;9.70;;;;;;;18.23;100.00;101074.66;20974944;28;20052;-73
2023/11/17 21:37:45;;;;;;;10.88;4.03;;;;;;;18.20;100.00;101061.31;20852690;28;20089;-74
2023/11/17 21:48:08;;;;;;;9.00;4.90;;;;;;;18.09;100.00;101063.22;20852807;28;20046;-74
2023/11/17 21:58:32;;;;;;;9.43;3.15;;;;;;;18.03;100.00;101063.28;20930253;28;20064;-75
2023/11/17 22:08:55;;;;;;;12.43;5.95;;;;;;;17.82;100.00;101053.69;20865911;28;20071;-74
2023/11/17 22:19:20;;;;;;;8.05;3.25;;;;;;;17.78;100.00;101030.59;20940695;28;20056;-74
2023/11/17 22:29:42;;;;;;;6.47;2.85;;;;;;;17.73;100.00;101015.50;20817646;28;20061;-74
2023/11/17 22:40:11;;;;;;;8.98;2.72;;;;;;;17.62;100.00;101033.41;20875619;28;20692;-74
2023/11/17 22:50:34;;;;;;;7.65;2.40;;;;;;;17.78;100.00;101040.41;20804821;28;20049;-74
2023/11/17 23:00:58;;;;;;;5.15;2.40;;;;;;;17.96;100.00;101013.50;20880891;28;20127;-74
2023/11/17 23:11:21;;;;;;;7.90;3.17;;;;;;;17.89;100.00;100990.41;20873209;28;20057;-74
2023/11/17 23:21:46;;;;;;;7.30;2.85;;;;;;;17.74;100.00;100975.44;20838188;28;20056;-74
2023/11/17 23:32:08;;;;;;;7.72;2.40;;;;;;;17.62;100.00;100948.84;20812277;28;20053;-74
2023/11/17 23:42:32;;;;;;;7.45;2.75;;;;;;;17.72;100.00;100936.31;20848038;28;20053;-74
2023/11/17 23:52:54;;;;;;;6.85;1.70;;;;;;;17.87;100.00;100917.41;20828600;28;20067;-74
